Time;durP1;ratioP1;P1;durP2;ratioP2;P2;SDS_P1;SDS_P2;PMS_P1;PMS_P2;Temp;Humidity;BMP_temperature;BMP_pressure;BME280_temperature;BME280_humidity;BME280_pressure;Samples;Min_cycle;Max_cycle;Signal;HPM_P1;HPM_P2
2024/01/15 00:01:21;;;;;;;7.93;6.00;;;;;;;;;;5015922;28;20389;-80
2024/01/15 00:03:47;;;;;;;6.68;6.00;;;;;;;;;;5015915;28;20477;-80
2024/01/15 00:06:13;;;;;;;6.85;6.18;;;;;;;;;;5016336;28;20742;-81
2024/01/15 00:08:39;;;;;;;6.43;5.65;;;;;;;;;;5015476;28;20901;-80
2024/01/15 00:11:05;;;;;;;6.53;5.63;;;;;;;;;;4998539;28;20399;-81
2024/01/15 00:13:31;;;;;;;7.28;5.88;;;;;;;;;;5016139;28;20385;-80
2024/01/15 00:15:57;;;;;;;6.07;5.47;;;;;;;;;;5015822;28;20415;-80
2024/01/15 00:18:23;;;;;;;6.07;5.38;;;;;;;;;;5015693;28;20478;-80
2024/01/15 00:20:49;;;;;;;6.57;5.22;;;;;;;;;;5015648;28;20385;-80
2024/01/15 00:23:15;;;;;;;6.65;5.72;;;;;;;;;;5015748;28;20377;-81
2024/01/15 00:25:41;;;;;;;6.05;5.45;;;;;;;;;;5015286;28;20392;-81
2024/01/15 00:28:07;;;;;;;7.47;5.13;;;;;;;;;;5015633;28;20389;-80
2024/01/15 00:30:33;;;;;;;6.13;5.53;;;;;;;;;;5015524;28;20389;-80
2024/01/15 00:32:59;;;;;;;5.70;4.80;;;;;;;;;;5015619;28;20456;-80
2024/01/15 00:35:25;;;;;;;5.80;5.18;;;;;;;;;;5015301;28;20385;-81
2024/01/15 00:37:51;;;;;;;6.20;5.43;;;;;;;;;;5015519;28;20901;-81
2024/01/15 00:40:17;;;;;;;5.75;5.13;;;;;;;;;;5015702;28;20384;-80
2024/01/15 00:42:43;;;;;;;6.70;5.03;;;;;;;;;;5015487;28;20851;-81
2024/01/15 00:45:09;;;;;;;6.55;5.30;;;;;;;;;;5013602;28;20412;-80
2024/01/15 00:47:35;;;;;;;6.22;5.28;;;;;;;;;;5019485;28;20505;-81
2024/01/15 00:50:01;;;;;;;5.82;5.22;;;;;;;;;;5035407;28;20485;-81
2024/01/15 00:52:27;;;;;;;5.90;5.30;;;;;;;;;;5033742;28;20692;-81
2024/01/15 00:54:53;;;;;;;5.85;5.10;;;;;;;;;;5034670;28;20531;-81
2024/01/15 00:57:19;;;;;;;6.75;6.05;;;;;;;;;;5035298;28;20407;-80
2024/01/15 00:59:46;;;;;;;6.72;5.88;;;;;;;;;;5034992;28;20837;-81
2024/01/15 01:02:12;;;;;;;6.60;5.75;;;;;;;;;;5035469;28;20387;-81
2024/01/15 01:04:38;;;;;;;7.03;5.90;;;;;;;;;;5034636;28;20410;-80
2024/01/15 01:07:04;;;;;;;6.65;6.00;;;;;;;;;;5034892;28;20399;-81
2024/01/15 01:09:30;;;;;;;8.43;6.45;;;;;;;;;;5034873;28;20387;-81
2024/01/15 01:11:56;;;;;;;7.78;6.88;;;;;;;;;;5034724;28;20467;-80
2024/01/15 01:14:22;;;;;;;7.47;6.47;;;;;;;;;;5034935;28;20394;-81
2024/01/15 01:16:48;;;;;;;7.53;6.72;;;;;;;;;;5034912;28;20411;-81
2024/01/15 01:19:15;;;;;;;7.97;6.78;;;;;;;;;;5034847;28;20707;-81
2024/01/15 01:21:41;;;;;;;8.45;6.60;;;;;;;;;;5034358;28;20390;-81
2024/01/15 01:24:07;;;;;;;7.40;6.70;;;;;;;;;;5035028;28;20468;-80
2024/01/15 01:26:32;;;;;;;7.97;6.72;;;;;;;;;;5031096;28;20849;-81
2024/01/15 01:28:59;;;;;;;7.53;6.53;;;;;;;;;;5034055;28;20383;-81
2024/01/15 01:31:25;;;;;;;7.63;6.82;;;;;;;;;;5034615;28;20886;-81
2024/01/15 01:33:51;;;;;;;8.23;6.90;;;;;;;;;;5034737;28;20407;-81
2024/01/15 01:36:17;;;;;;;8.02;6.85;;;;;;;;;;5035142;28;20467;-81
2024/01/15 01:38:43;;;;;;;7.67;6.30;;;;;;;;;;5034889;28;21124;-81
2024/01/15 01:41:10;;;;;;;8.27;6.80;;;;;;;;;;5035231;28;20383;-81
2024/01/15 01:43:36;;;;;;;7.30;6.60;;;;;;;;;;5033291;28;20513;-81
2024/01/15 01:46:03;;;;;;;6.95;6.22;;;;;;;;;;5036327;28;20425;-81
2024/01/15 01:48:30;;;;;;;7.28;6.45;;;;;;;;;;5036462;28;20438;-78
2024/01/15 01:50:58;;;;;;;8.02;6.50;;;;;;;;;;5036867;28;20505;-81
2024/01/15 01:53:25;;;;;;;7.43;6.63;;;;;;;;;;5037694;28;20442;-81
2024/01/15 01:55:51;;;;;;;7.38;6.57;;;;;;;;;;5036944;28;20468;-80
2024/01/15 01:58:18;;;;;;;7.03;6.33;;;;;;;;;;5038037;28;20383;-79
2024/01/15 02:00:44;;;;;;;7.38;6.40;;;;;;;;;;5037988;28;20398;-79
2024/01/15 02:03:10;;;;;;;7.60;6.80;;;;;;;;;;5037801;28;20394;-81
2024/01/15 02:05:36;;;;;;;7.45;6.75;;;;;;;;;;5038134;28;20391;-79
2024/01/15 02:08:02;;;;;;;7.90;6.63;;;;;;;;;;5038230;28;20383;-79
2024/01/15 02:10:28;;;;;;;7.38;6.43;;;;;;;;;;5038158;28;20861;-79
2024/01/15 02:12:54;;;;;;;8.03;6.93;;;;;;;;;;5037812;28;20403;-79
2024/01/15 02:15:20;;;;;;;8.20;6.80;;;;;;;;;;5038649;28;20521;-79
2024/01/15 02:18:02;;;;;;;7.60;6.70;;;;;;;;;;5037998;28;20411;-79
2024/01/15 02:20:28;;;;;;;7.63;6.45;;;;;;;;;;5038240;28;20432;-79
2024/01/15 02:22:55;;;;;;;9.15;7.43;;;;;;;;;;5037760;28;20383;-79
2024/01/15 02:25:21;;;;;;;9.05;7.05;;;;;;;;;;5037663;28;20379;-79
2024/01/15 02:27:47;;;;;;;8.00;7.07;;;;;;;;;;5037295;28;20845;-79
2024/01/15 02:30:13;;;;;;;8.23;6.95;;;;;;;;;;5037704;28;20393;-79
2024/01/15 02:32:39;;;;;;;9.00;7.20;;;;;;;;;;5036669;28;20386;-79
2024/01/15 02:35:05;;;;;;;8.93;7.47;;;;;;;;;;5037847;28;20375;-79
2024/01/15 02:37:31;;;;;;;8.80;7.72;;;;;;;;;;5037746;28;20415;-79
2024/01/15 02:39:57;;;;;;;8.75;7.80;;;;;;;;;;5037236;28;20383;-79
2024/01/15 02:42:23;;;;;;;9.20;7.28;;;;;;;;;;5037851;28;20856;-79
2024/01/15 02:44:49;;;;;;;9.20;7.70;;;;;;;;;;5037829;28;20382;-79
2024/01/15 02:47:15;;;;;;;8.38;6.95;;;;;;;;;;5037274;28;20391;-79
2024/01/15 02:49:41;;;;;;;9.30;7.20;;;;;;;;;;5037921;28;20391;-78
2024/01/15 02:52:07;;;;;;;8.70;7.25;;;;;;;;;;5037449;28;20753;-79
2024/01/15 02:54:33;;;;;;;9.45;7.32;;;;;;;;;;5037326;28;20387;-79
2024/01/15 02:56:59;;;;;;;9.35;7.57;;;;;;;;;;5036947;28;20419;-79
2024/01/15 02:59:25;;;;;;;8.37;7.10;;;;;;;;;;5037533;28;20472;-79
2024/01/15 03:01:51;;;;;;;10.55;7.97;;;;;;;;;;5037067;28;20796;-79
2024/01/15 03:04:17;;;;;;;8.15;6.78;;;;;;;;;;5036855;28;20394;-80
2024/01/15 03:06:43;;;;;;;9.55;7.68;;;;;;;;;;5037259;28;20407;-79
2024/01/15 03:09:09;;;;;;;9.38;7.15;;;;;;;;;;5036690;28;20375;-79
2024/01/15 03:11:39;;;;;;;10.00;7.45;;;;;;;;;;5036863;28;20383;-79
2024/01/15 03:14:05;;;;;;;8.70;7.43;;;;;;;;;;5036894;28;20733;-79
2024/01/15 03:16:31;;;;;;;9.18;7.30;;;;;;;;;;5036887;28;20407;-79
2024/01/15 03:18:57;;;;;;;9.93;7.63;;;;;;;;;;5036764;28;20387;-79
2024/01/15 03:21:23;;;;;;;8.60;7.15;;;;;;;;;;5036950;28;20857;-79
2024/01/15 03:23:49;;;;;;;8.43;7.10;;;;;;;;;;5037154;28;20418;-79
2024/01/15 03:26:15;;;;;;;8.85;7.65;;;;;;;;;;5036697;28;20391;-79
2024/01/15 03:28:41;;;;;;;9.65;7.63;;;;;;;;;;5034900;28;20396;-79
2024/01/15 03:31:08;;;;;;;9.80;7.72;;;;;;;;;;5016667;28;20389;-79
2024/01/15 03:33:34;;;;;;;9.95;8.10;;;;;;;;;;5016739;28;20408;-79
2024/01/15 03:36:00;;;;;;;9.20;7.70;;;;;;;;;;5016846;28;20413;-79
2024/01/15 03:38:28;;;;;;;10.00;8.00;;;;;;;;;;5017097;28;20396;-79
2024/01/15 03:40:54;;;;;;;10.13;7.73;;;;;;;;;;5016482;28;20508;-79
2024/01/15 03:43:20;;;;;;;10.30;7.95;;;;;;;;;;5016620;28;20395;-79
2024/01/15 03:45:46;;;;;;;8.90;7.50;;;;;;;;;;5016556;28;20393;-79
2024/01/15 03:48:12;;;;;;;8.77;7.63;;;;;;;;;;5016259;28;20447;-79
2024/01/15 03:50:38;;;;;;;8.52;7.35;;;;;;;;;;5016010;28;20408;-79
2024/01/15 03:53:04;;;;;;;9.27;7.65;;;;;;;;;;5016462;28;20451;-79
2024/01/15 03:55:30;;;;;;;9.18;7.43;;;;;;;;;;5016351;28;20385;-79
2024/01/15 03:57:56;;;;;;;10.20;8.13;;;;;;;;;;5016015;28;20396;-79
2024/01/15 04:00:22;;;;;;;10.82;8.82;;;;;;;;;;5016898;28;20388;-79
2024/01/15 04:02:48;;;;;;;10.63;8.37;;;;;;;;;;5016249;28;20381;-79
2024/01/15 04:05:14;;;;;;;9.30;7.38;;;;;;;;;;5016247;28;20392;-79
2024/01/15 04:07:40;;;;;;;9.38;7.68;;;;;;;;;;5015487;28;20381;-79
2024/01/15 04:10:06;;;;;;;10.80;8.40;;;;;;;;;;5015928;28;20878;-79
2024/01/15 04:12:32;;;;;;;9.10;7.88;;;;;;;;;;5015748;28;20480;-79
2024/01/15 04:14:58;;;;;;;9.85;7.78;;;;;;;;;;5016230;28;20385;-79
2024/01/15 04:17:24;;;;;;;8.20;7.30;;;;;;;;;;5016102;28;20459;-79
2024/01/15 04:19:50;;;;;;;9.15;7.65;;;;;;;;;;5016067;28;20407;-79
2024/01/15 04:22:16;;;;;;;9.73;7.35;;;;;;;;;;5016160;28;20428;-79
2024/01/15 04:24:42;;;;;;;10.60;8.23;;;;;;;;;;5015832;28;20381;-79
2024/01/15 04:27:08;;;;;;;9.55;7.85;;;;;;;;;;5015566;28;20399;-79
2024/01/15 04:29:34;;;;;;;8.63;7.20;;;;;;;;;;5015843;28;20393;-79
2024/01/15 04:32:00;;;;;;;10.15;7.93;;;;;;;;;;5015256;28;20396;-79
2024/01/15 04:34:26;;;;;;;8.82;7.45;;;;;;;;;;5012469;28;20534;-79
2024/01/15 04:36:52;;;;;;;9.93;8.43;;;;;;;;;;5007625;28;20414;-79
2024/01/15 04:39:18;;;;;;;9.60;7.90;;;;;;;;;;5007172;28;20392;-79
2024/01/15 04:41:44;;;;;;;10.18;8.15;;;;;;;;;;5014782;28;20412;-79
2024/01/15 04:44:10;;;;;;;12.13;8.90;;;;;;;;;;5015731;28;20843;-79
2024/01/15 04:46:36;;;;;;;11.20;9.15;;;;;;;;;;5015585;28;20392;-79
2024/01/15 04:49:02;;;;;;;12.18;9.60;;;;;;;;;;5031150;28;20410;-79
2024/01/15 04:51:28;;;;;;;13.93;9.40;;;;;;;;;;5033763;28;20762;-79
2024/01/15 04:53:54;;;;;;;14.35;9.90;;;;;;;;;;5034721;28;20384;-79
2024/01/15 04:56:20;;;;;;;12.80;9.18;;;;;;;;;;5034420;28;20415;-79
2024/01/15 04:58:46;;;;;;;15.88;10.00;;;;;;;;;;5034909;28;20382;-79
2024/01/15 05:01:12;;;;;;;15.82;10.05;;;;;;;;;;5034723;28;20379;-79
2024/01/15 05:03:39;;;;;;;14.00;9.68;;;;;;;;;;5034681;28;20376;-79
2024/01/15 05:06:05;;;;;;;14.15;10.30;;;;;;;;;;5034978;28;20389;-79
2024/01/15 05:08:31;;;;;;;15.30;9.57;;;;;;;;;;5034824;28;20444;-79
2024/01/15 05:10:57;;;;;;;13.83;8.50;;;;;;;;;;5034881;28;20453;-79
2024/01/15 05:13:23;;;;;;;7.18;5.18;;;;;;;;;;5034733;28;20379;-80
2024/01/15 05:15:49;;;;;;;5.57;4.43;;;;;;;;;;5035000;28;20564;-79
2024/01/15 05:18:15;;;;;;;5.95;4.30;;;;;;;;;;5034838;28;20376;-80
2024/01/15 05:20:42;;;;;;;3.65;2.75;;;;;;;;;;5036280;28;20383;-79
2024/01/15 05:23:08;;;;;;;3.60;2.95;;;;;;;;;;5039357;28;20379;-79
2024/01/15 05:25:34;;;;;;;3.85;3.20;;;;;;;;;;5038349;28;20375;-79
2024/01/15 05:28:00;;;;;;;3.38;2.60;;;;;;;;;;5038681;28;20381;-79
2024/01/15 05:30:26;;;;;;;5.90;4.60;;;;;;;;;;5038686;28;20718;-79
2024/01/15 05:32:52;;;;;;;5.47;4.43;;;;;;;;;;5038581;28;20378;-79
2024/01/15 05:35:18;;;;;;;5.57;4.10;;;;;;;;;;5039028;28;20415;-80
2024/01/15 05:37:45;;;;;;;3.35;2.78;;;;;;;;;;5035413;28;20399;-79
2024/01/15 05:40:11;;;;;;;3.30;3.00;;;;;;;;;;5019422;28;20446;-80
2024/01/15 05:42:37;;;;;;;4.05;2.60;;;;;;;;;;5018857;28;20450;-80
2024/01/15 05:45:04;;;;;;;3.50;2.50;;;;;;;;;;5019086;28;20930;-80
2024/01/15 05:47:30;;;;;;;3.80;2.38;;;;;;;;;;5018667;28;20499;-79
2024/01/15 05:49:57;;;;;;;3.65;2.35;;;;;;;;;;5050979;23;20431;-80
2024/01/15 05:52:23;;;;;;;2.85;2.40;;;;;;;;;;5059048;28;20423;-80
2024/01/15 05:54:49;;;;;;;3.03;2.60;;;;;;;;;;5059356;28;20399;-80
2024/01/15 05:57:16;;;;;;;3.20;2.72;;;;;;;;;;5057235;28;20427;-79
2024/01/15 05:59:43;;;;;;;3.50;2.77;;;;;;;;;;5073707;28;20422;-78
2024/01/15 06:02:09;;;;;;;3.83;2.73;;;;;;;;;;5073634;28;20432;-79
2024/01/15 06:04:35;;;;;;;4.40;2.80;;;;;;;;;;5076987;28;20387;-79
2024/01/15 06:07:01;;;;;;;3.63;3.30;;;;;;;;;;5075597;28;20456;-79
2024/01/15 06:09:28;;;;;;;3.42;2.58;;;;;;;;;;5076910;28;20396;-79
2024/01/15 06:11:54;;;;;;;3.53;2.95;;;;;;;;;;5076370;28;20462;-79
2024/01/15 06:14:20;;;;;;;6.15;3.13;;;;;;;;;;5073326;28;20388;-79
2024/01/15 06:16:46;;;;;;;4.07;3.28;;;;;;;;;;5076421;28;20403;-79
2024/01/15 06:19:12;;;;;;;4.00;3.05;;;;;;;;;;5076295;28;20470;-79
2024/01/15 06:21:38;;;;;;;4.53;3.30;;;;;;;;;;5076153;28;20384;-79
2024/01/15 06:24:04;;;;;;;5.00;3.78;;;;;;;;;;5076311;28;20376;-79
2024/01/15 06:26:30;;;;;;;4.95;3.75;;;;;;;;;;5075521;28;20417;-78
2024/01/15 06:28:56;;;;;;;5.85;4.40;;;;;;;;;;5074060;28;20757;-78
2024/01/15 06:31:22;;;;;;;5.33;3.90;;;;;;;;;;5074724;28;20414;-79
2024/01/15 06:33:48;;;;;;;6.35;4.53;;;;;;;;;;5076215;28;20864;-79
2024/01/15 06:36:16;;;;;;;7.57;5.43;;;;;;;;;;5076473;28;20446;-79
2024/01/15 06:38:42;;;;;;;8.07;5.47;;;;;;;;;;5075719;28;20387;-79
2024/01/15 06:41:08;;;;;;;8.50;6.28;;;;;;;;;;5059239;28;20388;-79
2024/01/15 06:43:34;;;;;;;8.50;5.75;;;;;;;;;;5056226;28;20423;-79
2024/01/15 06:46:00;;;;;;;8.63;6.70;;;;;;;;;;5055624;28;20381;-79
2024/01/15 06:48:26;;;;;;;8.38;6.20;;;;;;;;;;5055971;28;20382;-79
2024/01/15 06:50:52;;;;;;;7.43;5.40;;;;;;;;;;5055846;28;20783;-79
2024/01/15 06:53:18;;;;;;;7.10;5.63;;;;;;;;;;5055051;28;20389;-79
2024/01/15 06:55:44;;;;;;;7.90;6.13;;;;;;;;;;5053444;28;20416;-78
2024/01/15 06:58:10;;;;;;;7.78;5.80;;;;;;;;;;5053380;28;20409;-78
2024/01/15 07:00:36;;;;;;;8.68;5.82;;;;;;;;;;5053322;28;20475;-78
2024/01/15 07:03:02;;;;;;;7.93;6.30;;;;;;;;;;5053482;28;20451;-78
2024/01/15 07:05:30;;;;;;;7.28;5.20;;;;;;;;;;5053292;28;20381;-78
2024/01/15 07:07:56;;;;;;;7.78;5.85;;;;;;;;;;5035284;28;20427;-78
2024/01/15 07:10:22;;;;;;;8.50;6.40;;;;;;;;;;5054685;28;20431;-80
2024/01/15 07:12:48;;;;;;;9.95;6.85;;;;;;;;;;5055872;28;20385;-79
2024/01/15 07:15:14;;;;;;;9.35;6.47;;;;;;;;;;5055645;28;20385;-80
2024/01/15 07:17:40;;;;;;;10.60;7.28;;;;;;;;;;5055075;28;20409;-80
2024/01/15 07:20:07;;;;;;;11.77;8.03;;;;;;;;;;5055140;28;20469;-80
2024/01/15 07:22:34;;;;;;;9.73;7.72;;;;;;;;;;5055014;28;20447;-80
2024/01/15 07:25:00;;;;;;;11.90;8.45;;;;;;;;;;5055513;28;20840;-80
2024/01/15 07:27:26;;;;;;;12.48;8.75;;;;;;;;;;5055665;28;20388;-80
2024/01/15 07:29:52;;;;;;;12.32;8.70;;;;;;;;;;5055871;28;20803;-80
2024/01/15 07:32:18;;;;;;;13.95;9.38;;;;;;;;;;5055130;28;20378;-80
2024/01/15 07:34:44;;;;;;;11.30;8.15;;;;;;;;;;5071438;28;20853;-80
2024/01/15 07:37:10;;;;;;;12.80;8.80;;;;;;;;;;5075175;28;20403;-80
2024/01/15 07:39:36;;;;;;;11.23;8.57;;;;;;;;;;5075686;28;20382;-80
2024/01/15 07:42:02;;;;;;;13.17;8.83;;;;;;;;;;5075688;28;20733;-80
2024/01/15 07:44:28;;;;;;;12.02;9.25;;;;;;;;;;5074579;28;20875;-80
2024/01/15 07:46:54;;;;;;;11.48;8.15;;;;;;;;;;5075771;28;20384;-80
2024/01/15 07:49:20;;;;;;;13.27;9.32;;;;;;;;;;5074888;28;20776;-80
2024/01/15 07:51:46;;;;;;;13.13;9.10;;;;;;;;;;5074652;28;20746;-80
2024/01/15 07:54:12;;;;;;;10.90;8.55;;;;;;;;;;5074371;28;20387;-80
2024/01/15 07:56:57;;;;;;;10.30;7.85;;;;;;;;;;5074108;28;20422;-80
2024/01/15 07:59:23;;;;;;;12.63;8.60;;;;;;;;;;5074760;28;20543;-80
2024/01/15 08:01:49;;;;;;;11.57;8.68;;;;;;;;;;5074262;28;20372;-80
2024/01/15 08:04:15;;;;;;;12.00;9.05;;;;;;;;;;5074799;28;20876;-80
2024/01/15 08:06:41;;;;;;;10.20;8.20;;;;;;;;;;5074107;28;20437;-80
2024/01/15 08:09:08;;;;;;;11.90;8.55;;;;;;;;;;5074574;28;20375;-80
2024/01/15 08:11:34;;;;;;;10.65;8.38;;;;;;;;;;5064816;28;20435;-80
2024/01/15 08:14:00;;;;;;;9.85;7.90;;;;;;;;;;5054107;28;20382;-80
2024/01/15 08:16:27;;;;;;;10.05;7.93;;;;;;;;;;5053444;28;20407;-79
2024/01/15 08:18:53;;;;;;;9.35;7.68;;;;;;;;;;5052953;28;20715;-79
2024/01/15 08:21:19;;;;;;;11.15;8.60;;;;;;;;;;5052490;28;20377;-79
2024/01/15 08:23:45;;;;;;;10.90;8.63;;;;;;;;;;5052688;28;20472;-78
2024/01/15 08:26:11;;;;;;;18.73;10.73;;;;;;;;;;5052361;28;20382;-78
2024/01/15 08:28:37;;;;;;;9.30;6.97;;;;;;;;;;5052492;28;20807;-78
2024/01/15 08:31:03;;;;;;;11.40;8.43;;;;;;;;;;5053381;28;20685;-79
2024/01/15 08:33:29;;;;;;;9.82;7.38;;;;;;;;;;5052571;28;20383;-80
2024/01/15 08:35:55;;;;;;;10.45;7.78;;;;;;;;;;5052418;28;20926;-79
2024/01/15 08:38:22;;;;;;;8.05;6.90;;;;;;;;;;5052337;28;20393;-79
2024/01/15 08:40:48;;;;;;;9.32;6.75;;;;;;;;;;5052909;28;20412;-79
2024/01/15 08:43:14;;;;;;;8.55;6.68;;;;;;;;;;5052455;28;20381;-79
2024/01/15 08:45:40;;;;;;;9.60;7.40;;;;;;;;;;5064499;28;20384;-79
2024/01/15 08:48:06;;;;;;;10.20;8.25;;;;;;;;;;5072006;28;20391;-79
2024/01/15 08:50:33;;;;;;;10.97;8.90;;;;;;;;;;5071775;28;20449;-78
2024/01/15 08:52:59;;;;;;;11.73;9.10;;;;;;;;;;5072235;28;20768;-78
2024/01/15 08:55:25;;;;;;;14.38;9.43;;;;;;;;;;5072269;28;20376;-78
2024/01/15 08:57:51;;;;;;;12.00;9.10;;;;;;;;;;5072562;28;20472;-78
2024/01/15 09:00:18;;;;;;;14.25;9.82;;;;;;;;;;5072248;28;20794;-78
2024/01/15 09:02:44;;;;;;;11.93;8.60;;;;;;;;;;5071979;28;20384;-78
2024/01/15 09:05:10;;;;;;;12.93;8.93;;;;;;;;;;5071697;28;20383;-78
2024/01/15 09:07:36;;;;;;;13.82;9.35;;;;;;;;;;5071521;28;20437;-78
2024/01/15 09:10:02;;;;;;;13.90;8.77;;;;;;;;;;5071464;28;20462;-78
2024/01/15 09:12:29;;;;;;;15.02;10.00;;;;;;;;;;5071470;28;20376;-78
2024/01/15 09:14:55;;;;;;;12.85;9.70;;;;;;;;;;5071511;28;20379;-78
2024/01/15 09:17:23;;;;;;;16.70;10.38;;;;;;;;;;5071201;28;20411;-78
2024/01/15 09:19:49;;;;;;;14.77;10.43;;;;;;;;;;5071381;28;20504;-78
2024/01/15 09:22:18;;;;;;;15.50;10.60;;;;;;;;;;5071433;28;20391;-78
2024/01/15 09:24:44;;;;;;;15.13;10.32;;;;;;;;;;5071637;28;20370;-78
2024/01/15 09:27:10;;;;;;;16.37;10.70;;;;;;;;;;5071520;28;20916;-78
2024/01/15 09:29:41;;;;;;;14.52;10.55;;;;;;;;;;5071522;28;20388;-78
2024/01/15 09:32:07;;;;;;;17.17;10.95;;;;;;;;;;5071539;28;20435;-78
2024/01/15 09:34:34;;;;;;;17.75;10.90;;;;;;;;;;5071430;28;20376;-78
2024/01/15 09:37:00;;;;;;;19.05;11.18;;;;;;;;;;5071146;28;20489;-78
2024/01/15 09:39:26;;;;;;;18.88;11.00;;;;;;;;;;5071276;28;20459;-78
2024/01/15 09:41:53;;;;;;;17.42;11.25;;;;;;;;;;5071109;28;20387;-78
2024/01/15 09:44:19;;;;;;;17.83;11.88;;;;;;;;;;5070479;28;20881;-78
2024/01/15 09:46:49;;;;;;;17.75;10.95;;;;;;;;;;5071034;28;20837;-78
2024/01/15 09:49:15;;;;;;;18.13;11.27;;;;;;;;;;5071228;28;20391;-78
2024/01/15 09:51:42;;;;;;;16.27;10.82;;;;;;;;;;5071230;28;20457;-78
2024/01/15 09:54:09;;;;;;;18.88;11.52;;;;;;;;;;5072768;28;20430;-79
2024/01/15 09:56:35;;;;;;;18.02;11.40;;;;;;;;;;5071049;28;20431;-78
2024/01/15 09:59:01;;;;;;;16.50;10.30;;;;;;;;;;5071148;28;20903;-78
2024/01/15 10:01:28;;;;;;;16.98;10.85;;;;;;;;;;5071229;28;20383;-78
2024/01/15 10:03:55;;;;;;;16.17;10.25;;;;;;;;;;5065516;28;20396;-78
2024/01/15 10:06:22;;;;;;;14.75;10.00;;;;;;;;;;5051311;28;20770;-78
2024/01/15 10:08:49;;;;;;;14.43;9.73;;;;;;;;;;5054417;28;20434;-78
2024/01/15 10:11:16;;;;;;;14.20;9.32;;;;;;;;;;5054672;28;20420;-78
2024/01/15 10:13:44;;;;;;;14.55;9.07;;;;;;;;;;5054450;28;20400;-78
2024/01/15 10:16:11;;;;;;;12.43;8.93;;;;;;;;;;5054424;28;20409;-78
2024/01/15 10:18:39;;;;;;;12.00;8.77;;;;;;;;;;5054708;28;21008;-78
2024/01/15 10:21:06;;;;;;;12.50;8.63;;;;;;;;;;5054644;28;20469;-78
2024/01/15 10:23:32;;;;;;;11.68;8.50;;;;;;;;;;5054524;28;20388;-78
2024/01/15 10:25:58;;;;;;;12.00;8.20;;;;;;;;;;5054524;28;20381;-78
2024/01/15 10:28:27;;;;;;;12.88;8.43;;;;;;;;;;5054456;28;20839;-78
2024/01/15 10:30:53;;;;;;;10.75;8.13;;;;;;;;;;5054281;28;20423;-79
2024/01/15 10:33:25;;;;;;;10.27;7.73;;;;;;;;;;5055433;28;20383;-79
2024/01/15 10:35:51;;;;;;;11.57;7.70;;;;;;;;;;5055817;28;20462;-79
2024/01/15 10:38:19;;;;;;;11.55;7.97;;;;;;;;;;5056037;28;20384;-79
2024/01/15 10:40:46;;;;;;;11.20;7.40;;;;;;;;;;5037464;28;20471;-79
2024/01/15 10:43:12;;;;;;;11.68;7.82;;;;;;;;;;5055156;28;20757;-79
2024/01/15 10:45:38;;;;;;;9.77;7.53;;;;;;;;;;5059790;28;20384;-80
2024/01/15 10:48:04;;;;;;;10.40;7.18;;;;;;;;;;5075929;28;20446;-79
2024/01/15 10:50:32;;;;;;;9.10;7.05;;;;;;;;;;5076120;28;20486;-79
2024/01/15 10:52:58;;;;;;;10.95;6.60;;;;;;;;;;5076109;28;20384;-79
2024/01/15 10:55:24;;;;;;;8.73;6.38;;;;;;;;;;5075794;28;20380;-79
2024/01/15 10:57:50;;;;;;;9.50;6.53;;;;;;;;;;5075824;28;20396;-81
2024/01/15 11:00:17;;;;;;;9.20;6.80;;;;;;;;;;5076104;28;20371;-80
2024/01/15 11:02:44;;;;;;;8.02;6.20;;;;;;;;;;5075590;28;20376;-80
2024/01/15 11:05:10;;;;;;;7.80;6.38;;;;;;;;;;5075757;28;20429;-80
2024/01/15 11:07:40;;;;;;;6.47;5.60;;;;;;;;;;5075447;28;20463;-80
2024/01/15 11:10:10;;;;;;;7.25;5.70;;;;;;;;;;5075346;28;21149;-80
2024/01/15 11:12:36;;;;;;;7.57;6.03;;;;;;;;;;5076177;28;20511;-80
2024/01/15 11:15:09;;;;;;;8.52;6.78;;;;;;;;;;5075573;28;20600;-80
2024/01/15 11:17:53;;;;;;;11.60;7.22;;;;;;;;;;5075457;28;20474;-80
2024/01/15 11:20:19;;;;;;;7.95;6.40;;;;;;;;;;5075427;28;20458;-80
2024/01/15 11:22:49;;;;;;;9.43;6.25;;;;;;;;;;5075298;28;20442;-80
2024/01/15 11:25:15;;;;;;;8.60;6.10;;;;;;;;;;5075721;28;20400;-80
2024/01/15 11:27:42;;;;;;;7.78;6.20;;;;;;;;;;5076949;28;20749;-78
2024/01/15 11:30:11;;;;;;;7.65;5.20;;;;;;;;;;5075446;28;20723;-78
2024/01/15 11:32:41;;;;;;;8.90;6.25;;;;;;;;;;5074252;28;20430;-78
2024/01/15 11:35:08;;;;;;;6.78;5.63;;;;;;;;;;5072958;28;20384;-78
2024/01/15 11:37:57;;;;;;;7.78;5.70;;;;;;;;;;5072648;28;20428;-78
2024/01/15 11:40:44;;;;;;;7.78;5.97;;;;;;;;;;5074097;28;20443;-80
2024/01/15 11:43:10;;;;;;;7.35;6.07;;;;;;;;;;5074494;28;20887;-83
2024/01/15 11:45:36;;;;;;;7.30;5.70;;;;;;;;;;5075173;28;20376;-82
2024/01/15 11:48:15;;;;;;;6.18;5.57;;;;;;;;;;5075381;28;20375;-82
2024/01/15 11:50:51;;;;;;;6.65;5.35;;;;;;;;;;5075036;28;20465;-82
2024/01/15 11:53:35;;;;;;;7.63;5.50;;;;;;;;;;5075064;28;20376;-82
2024/01/15 11:56:02;;;;;;;7.75;5.85;;;;;;;;;;5053824;28;20408;-82
2024/01/15 11:58:29;;;;;;;6.87;5.73;;;;;;;;;;5075097;28;20841;-82
2024/01/15 12:00:55;;;;;;;6.70;5.18;;;;;;;;;;5075356;28;20384;-82
2024/01/15 12:03:22;;;;;;;8.05;5.82;;;;;;;;;;5075027;28;20380;-82
2024/01/15 12:05:48;;;;;;;7.63;5.55;;;;;;;;;;5074472;28;20467;-82
2024/01/15 12:08:14;;;;;;;13.40;5.90;;;;;;;;;;5074686;28;20790;-82
2024/01/15 12:10:40;;;;;;;8.75;5.50;;;;;;;;;;5075332;28;20408;-81
2024/01/15 12:13:12;;;;;;;6.85;4.90;;;;;;;;;;5075315;28;20388;-81
2024/01/15 12:15:42;;;;;;;6.97;5.40;;;;;;;;;;5075001;28;20384;-81
2024/01/15 12:18:09;;;;;;;6.63;5.60;;;;;;;;;;5074332;28;20384;-81
2024/01/15 12:20:35;;;;;;;6.63;5.05;;;;;;;;;;5074799;28;20414;-81
2024/01/15 12:23:05;;;;;;;9.03;5.77;;;;;;;;;;5074582;28;20375;-81
2024/01/15 12:25:32;;;;;;;8.88;5.55;;;;;;;;;;5074107;28;20372;-80
2024/01/15 12:27:59;;;;;;;6.88;5.40;;;;;;;;;;5074206;28;20375;-80
2024/01/15 12:30:26;;;;;;;6.55;5.47;;;;;;;;;;5074006;28;20387;-80
2024/01/15 12:32:52;;;;;;;7.35;5.38;;;;;;;;;;5074614;28;20379;-80
2024/01/15 12:35:18;;;;;;;6.63;5.10;;;;;;;;;;5074319;28;20922;-80
2024/01/15 12:37:46;;;;;;;6.75;5.25;;;;;;;;;;5073948;28;20403;-80
2024/01/15 12:40:12;;;;;;;6.97;5.88;;;;;;;;;;5073928;28;20407;-80
2024/01/15 12:42:40;;;;;;;6.70;5.40;;;;;;;;;;5074060;28;20441;-80
2024/01/15 12:45:06;;;;;;;6.63;5.00;;;;;;;;;;5074001;28;20491;-80
2024/01/15 12:47:33;;;;;;;6.93;5.47;;;;;;;;;;5071995;28;21011;-80
2024/01/15 12:49:59;;;;;;;9.23;6.13;;;;;;;;;;5073558;28;20411;-80
2024/01/15 12:52:27;;;;;;;6.53;5.38;;;;;;;;;;5073570;28;20387;-80
2024/01/15 12:54:53;;;;;;;5.90;5.00;;;;;;;;;;5055558;28;20403;-80
2024/01/15 12:57:19;;;;;;;6.20;5.60;;;;;;;;;;5073224;28;20399;-80
2024/01/15 12:59:45;;;;;;;8.63;5.70;;;;;;;;;;5073552;28;20771;-79
2024/01/15 13:02:13;;;;;;;8.75;5.40;;;;;;;;;;5073321;28;20449;-79
2024/01/15 13:04:39;;;;;;;7.00;5.72;;;;;;;;;;5073782;28;20384;-79
2024/01/15 13:07:06;;;;;;;8.43;5.72;;;;;;;;;;5074037;28;20380;-81
2024/01/15 13:09:32;;;;;;;6.30;5.28;;;;;;;;;;5074083;28;20384;-81
2024/01/15 13:11:58;;;;;;;6.45;4.97;;;;;;;;;;5073636;28;20418;-81
2024/01/15 13:14:24;;;;;;;7.20;5.43;;;;;;;;;;5073336;28;20392;-81
2024/01/15 13:16:50;;;;;;;7.43;5.43;;;;;;;;;;5073697;28;20460;-81
2024/01/15 13:19:16;;;;;;;7.13;5.25;;;;;;;;;;5073432;28;20884;-81
2024/01/15 13:21:42;;;;;;;5.75;5.15;;;;;;;;;;5073027;28;20384;-81
2024/01/15 13:24:08;;;;;;;6.80;4.72;;;;;;;;;;5073307;28;20380;-81
2024/01/15 13:26:38;;;;;;;4.78;4.30;;;;;;;;;;5073222;28;20403;-80
2024/01/15 13:29:04;;;;;;;4.30;3.70;;;;;;;;;;5073249;28;20388;-81
2024/01/15 13:31:30;;;;;;;6.05;4.05;;;;;;;;;;5073355;28;20387;-81
2024/01/15 13:33:56;;;;;;;4.85;3.95;;;;;;;;;;5073632;28;20383;-81
2024/01/15 13:36:23;;;;;;;5.45;3.95;;;;;;;;;;5073343;28;20490;-81
2024/01/15 13:38:50;;;;;;;5.03;4.07;;;;;;;;;;5073983;28;20472;-81
2024/01/15 13:41:18;;;;;;;5.75;4.07;;;;;;;;;;5073647;28;20368;-81
2024/01/15 13:43:47;;;;;;;5.03;4.23;;;;;;;;;;5077726;28;20745;-81
2024/01/15 13:46:13;;;;;;;6.25;5.40;;;;;;;;;;5077644;28;20757;-81
2024/01/15 13:48:39;;;;;;;6.10;4.93;;;;;;;;;;5073526;28;20385;-81
2024/01/15 13:51:06;;;;;;;6.05;4.63;;;;;;;;;;5076228;28;20404;-81
2024/01/15 13:53:32;;;;;;;5.72;4.32;;;;;;;;;;5076667;28;20402;-81
2024/01/15 13:55:58;;;;;;;5.78;4.88;;;;;;;;;;5076753;28;20403;-81
2024/01/15 13:58:25;;;;;;;5.55;4.85;;;;;;;;;;5076682;28;20390;-81
2024/01/15 14:00:52;;;;;;;7.18;5.07;;;;;;;;;;5077190;28;20371;-81
2024/01/15 14:03:19;;;;;;;6.22;4.57;;;;;;;;;;5077268;28;20783;-81
2024/01/15 14:05:45;;;;;;;6.45;5.70;;;;;;;;;;5076784;28;20592;-81
2024/01/15 14:08:11;;;;;;;7.63;5.57;;;;;;;;;;5076753;28;20384;-81
2024/01/15 14:10:37;;;;;;;7.20;6.00;;;;;;;;;;5076698;28;20458;-81
2024/01/15 14:13:03;;;;;;;7.07;6.20;;;;;;;;;;5076913;28;20376;-81
2024/01/15 14:15:29;;;;;;;7.88;6.10;;;;;;;;;;5076491;28;20376;-81
2024/01/15 14:17:56;;;;;;;7.07;6.10;;;;;;;;;;5076522;28;20403;-81
2024/01/15 14:20:22;;;;;;;7.07;6.38;;;;;;;;;;5076477;28;20414;-81
2024/01/15 14:22:48;;;;;;;7.63;6.45;;;;;;;;;;5076467;28;20854;-81
2024/01/15 14:25:14;;;;;;;8.77;6.68;;;;;;;;;;5058572;28;20482;-81
2024/01/15 14:27:40;;;;;;;6.95;6.25;;;;;;;;;;5076556;28;20479;-81
2024/01/15 14:30:08;;;;;;;7.60;6.35;;;;;;;;;;5076583;28;20386;-81
2024/01/15 14:32:34;;;;;;;11.30;7.25;;;;;;;;;;5076583;28;20845;-81
2024/01/15 14:35:00;;;;;;;7.28;6.00;;;;;;;;;;5076681;28;20475;-81